Margarettsville, North Carolina
Current Conditions -  °F | °C
As of 4:35 PM on Friday 28 Nov 2014 (Local Time) from KEMV Reporting Station
Clear Clear  
Wind Chill: 37°   Ceiling: Unl
Heat Index: 37°   Visibility: NA
Dew Point: 21°   Wind: 3mph
Humidity: 52%   Direction: 290°WNW
Pressure: 30.31"   Gusts: NA
Location:  36.53°N, 77.35°W
Report Text: KEMV 282135Z AUTO 29003KT CLR 03/M06 A3031 RMK AO2
Loading
Personal Weather Stations






























Interactive Weather Map New forecast layout! Learn more

10-Day Weather Forecast

Advertisements
Track Severe Weather on mobile